Strona główna
METAR-TAF:

METAR-TAF

Lotnisko :

Port lotniczy Wientian-Wattay

Wientian, Laos

Szerokość geograficzna: 17-57N, Długość geograficzna: 102-34E, wysokość: 171 m

Aktualna obserwacja pogody

Raport powstał 40 minut temu, godzina 16:00 UTC
Wiatr 6 kt od wschód
Temperatura 26°C
Wilgotność 70%
Ciśnienie 1012 hPa
Widzialność: 3000 m
Rozproszone chmury na wysokości 5000 ft
zamglenie

METAR: VLVT 121600Z 09006KT 3000 BR SCT050 26/20 Q1012 NOSIG

czas: 23:40 (16:40 UTC)

Prognoza

Raport powstał 5 godziny i 40 minut temu, godzina 11:00 UTC
Prognoza ważna od 12 godzina 12 UTC do 13 godzina 12 UTC
Wiatr 6 kt od północny zachód
Widzialność: 8000 m
Rozproszone chmury na wysokości 2000 ft
Rozproszone chmury na wysokości 10000 ft

TAF: VLVT 121100Z 1212/1312 32006KT 8000 SCT020 SCT100

Obserwacja i prognoza pogody dla ponad 4000 lotnisk (raport METAR i TAF).

Dostępne stacje oznaczono żółtymi i czerwonymi punktami na mapie.

Najedź kursorem aby zobaczyć nazwę stacji.

Kliknij aby zobaczyć obserwacje i prognozy pogody.

Aby zmienić mapę: kliknij na zielony przycisk z czarnym krzyżykiem, aby powiększyć; na zielony przycisk z myślnikiem, aby pomniejszyć; na zielone strzałki, aby przejść do map sąsiednich.


METAR-TAF: